createdAt,value
2023-02-05T00:03:11.455Z,75.31
2023-02-05T00:08:13.206Z,75.50
2023-02-05T00:13:21.169Z,76.26
2023-02-05T00:18:23.093Z,76.22
2023-02-05T00:23:24.775Z,77.54
2023-02-05T00:28:26.879Z,77.35
2023-02-05T00:33:28.539Z,77.67
2023-02-05T00:38:30.558Z,77.63
2023-02-05T00:43:32.453Z,78.18
2023-02-05T00:48:42.377Z,78.58
2023-02-05T00:53:44.107Z,78.67
2023-02-05T00:58:47.874Z,79.13
2023-02-05T01:03:49.741Z,79.05
2023-02-05T01:08:51.728Z,79.37
2023-02-05T01:13:53.513Z,79.70
2023-02-05T01:18:56.737Z,80.02
2023-02-05T01:23:59.991Z,80.03
2023-02-05T01:29:02.396Z,80.60
2023-02-05T01:34:04.224Z,81.12
2023-02-05T01:39:05.828Z,81.30
2023-02-05T01:44:19.544Z,80.79
2023-02-05T01:49:27.399Z,80.74
2023-02-05T01:54:32.040Z,79.82
2023-02-05T01:59:38.823Z,80.18
2023-02-05T02:04:43.630Z,80.47
2023-02-05T02:09:47.331Z,80.59
2023-02-05T02:14:52.806Z,80.39
2023-02-05T02:20:03.256Z,80.67
2023-02-05T02:25:17.337Z,80.54
2023-02-05T02:30:41.791Z,80.85
2023-02-05T02:35:49.841Z,80.44
2023-02-05T02:40:55.529Z,80.76
2023-02-05T02:46:06.536Z,80.80
2023-02-05T02:51:11.688Z,81.59
2023-02-05T02:56:15.789Z,81.31
2023-02-05T03:01:21.822Z,81.01
2023-02-05T03:06:25.713Z,81.28
2023-02-05T03:11:27.671Z,80.86
2023-02-05T03:16:29.648Z,80.52
2023-02-05T03:21:40.905Z,80.48
2023-02-05T03:26:42.764Z,80.49
2023-02-05T03:32:02.505Z,80.91
2023-02-05T03:37:16.531Z,80.68
2023-02-05T03:42:36.857Z,80.89
2023-02-05T03:47:53.916Z,80.96
2023-02-05T03:53:04.877Z,81.04
2023-02-05T03:58:19.240Z,81.08
2023-02-05T04:03:21.562Z,81.13
2023-02-05T04:08:23.408Z,81.46
2023-02-05T04:13:26.965Z,81.22
2023-02-05T04:18:29.300Z,81.83
2023-02-05T04:23:31.677Z,82.48
2023-02-05T04:28:33.558Z,82.41
2023-02-05T04:33:36.240Z,82.36
2023-02-05T04:38:38.268Z,81.92
2023-02-05T04:43:40.117Z,82.33
2023-02-05T04:48:42.029Z,82.51
2023-02-05T04:53:43.843Z,82.80
2023-02-05T04:58:45.791Z,82.88
2023-02-05T05:03:48.455Z,83.17
2023-02-05T05:08:50.201Z,83.06
2023-02-05T05:13:52.287Z,82.51
2023-02-05T05:18:54.063Z,83.17
2023-02-05T05:23:55.916Z,82.19
2023-02-05T05:28:57.905Z,82.62
2023-02-05T05:33:59.716Z,82.88
2023-02-05T05:39:21.342Z,82.43
2023-02-05T05:44:22.975Z,82.59
2023-02-05T05:49:24.602Z,83.09
2023-02-05T05:54:26.347Z,82.35
2023-02-05T05:59:27.983Z,82.55
2023-02-05T06:04:30.338Z,81.79
2023-02-05T06:09:32.237Z,82.35
2023-02-05T06:14:34.047Z,82.27
2023-02-05T06:19:35.647Z,81.88
2023-02-05T06:24:37.399Z,82.16
2023-02-05T06:29:39.136Z,82.31
2023-02-05T06:34:40.822Z,82.08
2023-02-05T06:39:43.119Z,82.31
2023-02-05T06:44:45.106Z,82.46
2023-02-05T06:49:46.751Z,82.16
2023-02-05T06:54:48.455Z,82.23
2023-02-05T06:59:50.236Z,82.24
2023-02-05T07:04:51.985Z,82.08
2023-02-05T07:09:53.912Z,81.05
2023-02-05T07:14:55.575Z,81.10
2023-02-05T07:19:58.750Z,78.99
2023-02-05T07:25:02.144Z,76.24
2023-02-05T07:30:06.641Z,73.77
2023-02-05T07:35:08.390Z,73.52
2023-02-05T07:40:10.718Z,73.67
2023-02-05T07:45:12.763Z,73.98
2023-02-05T07:50:14.536Z,74.03
2023-02-05T07:55:16.248Z,74.34
2023-02-05T08:00:18.336Z,74.50
2023-02-05T08:05:19.986Z,73.64
2023-02-05T08:10:21.791Z,69.11
2023-02-05T08:15:23.614Z,64.67
2023-02-05T08:20:25.272Z,62.83
2023-02-05T08:25:26.915Z,58.57
2023-02-05T08:30:28.834Z,58.07
2023-02-05T08:35:30.889Z,57.71
2023-02-05T08:40:32.998Z,56.32
2023-02-05T08:45:34.936Z,54.97
2023-02-05T08:50:36.712Z,54.06
2023-02-05T08:55:39.301Z,51.21
2023-02-05T09:00:41.099Z,51.60
2023-02-05T09:05:42.824Z,52.87
2023-02-05T09:10:44.905Z,54.25
2023-02-05T09:15:48.598Z,56.00
2023-02-05T09:20:51.293Z,57.62
2023-02-05T09:25:53.252Z,59.35
2023-02-05T09:30:55.180Z,60.41
2023-02-05T09:35:56.893Z,61.33
2023-02-05T09:41:18.590Z,61.46
2023-02-05T09:46:54.565Z,62.66
2023-02-05T09:52:11.305Z,63.72
2023-02-05T09:57:20.120Z,63.37
2023-02-05T10:02:27.589Z,64.09
2023-02-05T10:07:55.261Z,64.18
2023-02-05T10:13:24.194Z,64.09
2023-02-05T10:18:59.951Z,63.64
2023-02-05T10:24:20.611Z,64.22
2023-02-05T10:29:32.016Z,64.16
2023-02-05T10:34:54.084Z,63.32
2023-02-05T10:39:57.596Z,63.39
2023-02-05T10:45:24.931Z,63.09
2023-02-05T10:50:48.075Z,62.69
2023-02-05T10:55:50.500Z,62.46
2023-02-05T11:00:52.379Z,61.86
2023-02-05T11:05:54.592Z,61.48
2023-02-05T11:10:56.284Z,61.39
2023-02-05T11:16:08.466Z,60.58
2023-02-05T11:21:11.107Z,60.56
2023-02-05T11:26:22.114Z,59.38
2023-02-05T11:31:34.763Z,58.77
2023-02-05T11:36:39.428Z,59.09
2023-02-05T11:41:48.449Z,59.49
2023-02-05T11:46:56.736Z,58.77
2023-02-05T11:51:59.646Z,57.74
2023-02-05T11:57:06.503Z,57.09
2023-02-05T12:02:25.827Z,58.12
2023-02-05T12:07:35.367Z,57.91
2023-02-05T12:12:43.982Z,58.38
2023-02-05T12:18:06.586Z,58.63
2023-02-05T12:23:42.561Z,59.77
2023-02-05T12:29:06.565Z,60.45
2023-02-05T12:34:39.907Z,61.07
2023-02-05T12:40:06.499Z,61.36
2023-02-05T12:45:42.813Z,61.90
2023-02-05T12:51:32.855Z,62.67
2023-02-05T12:56:54.712Z,62.15
2023-02-05T13:02:05.368Z,61.95
2023-02-05T13:07:20.984Z,61.03
2023-02-05T13:12:27.450Z,61.51
2023-02-05T13:17:38.408Z,60.85
2023-02-05T13:23:11.155Z,60.19
2023-02-05T13:28:42.460Z,58.50
2023-02-05T13:33:44.669Z,57.10
2023-02-05T13:39:01.966Z,57.56
2023-02-05T13:44:26.166Z,57.97
2023-02-05T13:49:52.575Z,56.77
2023-02-05T13:55:18.137Z,58.30
2023-02-05T14:00:20.807Z,57.45
2023-02-05T14:05:33.578Z,57.56
2023-02-05T14:10:41.160Z,57.62
2023-02-05T14:15:44.384Z,58.07
2023-02-05T14:20:46.010Z,59.36
2023-02-05T14:26:03.504Z,59.12
2023-02-05T14:31:07.597Z,59.21
2023-02-05T14:36:22.658Z,59.39
2023-02-05T14:41:31.552Z,59.39
2023-02-05T14:46:40.020Z,60.32
2023-02-05T14:51:48.820Z,60.62
2023-02-05T14:57:13.087Z,61.05
2023-02-05T15:02:53.126Z,61.00
2023-02-05T15:08:16.360Z,60.54
2023-02-05T15:13:20.572Z,61.17
2023-02-05T15:18:28.900Z,61.86
2023-02-05T15:23:43.967Z,62.37
2023-02-05T15:28:56.133Z,61.84
2023-02-05T15:34:27.811Z,62.18
2023-02-05T15:39:32.632Z,62.78
2023-02-05T15:44:35.919Z,63.10
2023-02-05T15:49:43.292Z,63.03
2023-02-05T15:54:45.006Z,63.47
2023-02-05T15:59:46.959Z,63.84
2023-02-05T16:05:00.204Z,63.73
2023-02-05T16:10:15.109Z,63.98
2023-02-05T16:15:16.879Z,64.88
2023-02-05T16:20:34.292Z,65.01
2023-02-05T16:26:03.685Z,64.80
2023-02-05T16:31:07.652Z,65.09
2023-02-05T16:36:19.369Z,65.31
2023-02-05T16:41:28.424Z,65.38
2023-02-05T16:46:32.633Z,65.66
2023-02-05T16:51:54.327Z,65.93
2023-02-05T16:57:14.207Z,65.78
2023-02-05T17:02:37.677Z,66.22
2023-02-05T17:07:39.644Z,66.30
2023-02-05T17:12:47.652Z,65.83
2023-02-05T17:17:53.783Z,65.69
2023-02-05T17:22:59.039Z,65.22
2023-02-05T17:28:06.027Z,64.31
2023-02-05T17:33:16.297Z,64.21
2023-02-05T17:38:20.667Z,63.58
2023-02-05T17:43:22.543Z,63.77
2023-02-05T17:48:25.291Z,63.63
2023-02-05T17:53:27.223Z,63.80
2023-02-05T17:58:30.335Z,64.03
2023-02-05T18:03:32.323Z,63.82
2023-02-05T18:08:36.426Z,63.27
2023-02-05T18:13:38.128Z,63.88
2023-02-05T18:18:39.841Z,64.25
2023-02-05T18:23:42.534Z,63.47
2023-02-05T18:28:45.261Z,63.46
2023-02-05T18:33:49.201Z,63.47
2023-02-05T18:38:51.147Z,63.68
2023-02-05T18:43:56.824Z,64.83
2023-02-05T18:48:58.732Z,64.74
2023-02-05T18:54:00.778Z,64.83
2023-02-05T18:59:06.576Z,64.00
2023-02-05T19:04:13.050Z,64.18
2023-02-05T19:09:15.048Z,65.09
2023-02-05T19:14:18.742Z,64.81
2023-02-05T19:19:23.329Z,65.02
2023-02-05T19:24:25.610Z,64.99
2023-02-05T19:29:27.611Z,64.68
2023-02-05T19:34:29.403Z,65.51
2023-02-05T19:39:31.196Z,65.08
2023-02-05T19:44:32.806Z,66.00
2023-02-05T19:49:34.459Z,65.72
2023-02-05T19:54:36.624Z,65.35
2023-02-05T19:59:38.517Z,66.26
2023-02-05T20:04:41.763Z,67.14
2023-02-05T20:09:43.755Z,66.38
2023-02-05T20:14:48.874Z,66.53
2023-02-05T20:19:52.166Z,66.74
2023-02-05T20:24:57.043Z,66.77
2023-02-05T20:30:18.591Z,67.30
2023-02-05T20:35:20.802Z,67.62
2023-02-05T20:40:24.128Z,67.91
2023-02-05T20:45:25.772Z,67.36
2023-02-05T20:50:27.724Z,66.74
2023-02-05T20:55:29.362Z,66.69
2023-02-05T21:00:31.042Z,67.76
2023-02-05T21:05:32.699Z,67.19
2023-02-05T21:10:34.775Z,67.69
2023-02-05T21:15:36.642Z,68.09
2023-02-05T21:20:38.553Z,67.53
2023-02-05T21:25:40.438Z,68.05
2023-02-05T21:30:43.132Z,67.54
2023-02-05T21:35:44.820Z,67.97
2023-02-05T21:40:46.716Z,68.63
2023-02-05T21:45:48.431Z,68.69
2023-02-05T21:50:50.115Z,67.90
2023-02-05T21:55:51.788Z,67.43
2023-02-05T22:00:53.420Z,67.39
2023-02-05T22:05:56.583Z,67.87
2023-02-05T22:11:05.684Z,67.76
2023-02-05T22:16:13.948Z,67.01
2023-02-05T22:21:21.714Z,67.62
2023-02-05T22:26:41.889Z,67.09
2023-02-05T22:31:45.153Z,67.62
2023-02-05T22:36:47.348Z,67.71
2023-02-05T22:41:49.160Z,67.73
2023-02-05T22:46:50.804Z,67.97
2023-02-05T22:51:53.199Z,68.49
2023-02-05T22:56:54.842Z,68.35
2023-02-05T23:01:56.491Z,67.56
2023-02-05T23:06:58.406Z,66.82
2023-02-05T23:12:00.979Z,67.95
2023-02-05T23:17:02.653Z,67.77
2023-02-05T23:22:09.562Z,67.14
2023-02-05T23:27:11.248Z,67.20
2023-02-05T23:32:15.016Z,67.77
2023-02-05T23:37:17.118Z,67.52
2023-02-05T23:42:18.793Z,68.36
2023-02-05T23:47:20.445Z,68.19
2023-02-05T23:52:22.079Z,68.32
2023-02-05T23:57:23.691Z,69.05
